Tiempo atmosférico en la estación meteorológica de El Pedregal, Guadalajara (1185 m.)



Fecha
DESCASC
Temp. máxima en grados centígrados (hora)
DESCASC
Temp. mínima en grados centígrados (hora)
DESCASC
Temp. media en grados centígrados
DESCASC
Racha de viento máxima en m/sg (hora)
DESCASC
Velocidad máxima media en intervalos de 10 minutos(hora)
DESCASC
Precipitaciones diarias en mm
DESCASC
Precipitaciones de 00:00 a 06:00 en mm
DESCASC
Precipitaciones de 06:00 a 12:00 en mm
DESCASC
Precipitaciones de 12:00 a 18:00 en mm
DESCASC
Precipitaciones de 18:00 a 24:00 en mm
DESCASC
18-01-2018 15.7 (15:30) -1.7 (07:30) 7 5 (01:30) 3.33 (01:30) 0 0 0 0 0
17-01-2018 9.7 (13:30) -1.3 (23:10) 4.2 11.11 (06:50) 6.67 (06:50) 0 0 0 0 0
16-01-2018 11.7 (16:20) 0.6 (00:10) 6.1 13.61 (12:30) 9.72 (12:50) 0 0 0 0 0
15-01-2018 6.4 (15:20) -1.5 (01:50) 2.5 10 (21:00) 7.5 (21:50) 0 0 0 0 0
14-01-2018 3.8 (13:50) -0.8 (-00:0) 1.5 10.28 (01:20) 6.39 (07:20) 1 0 1 0 0
13-01-2018 7.1 (15:10) -2.7 (-00:0) 2.2 9.72 (23:40) 5.56 (23:40) 0.2 0 0 0 0.2
12-01-2018 6.4 (15:50) -1.4 (-00:0) 2.5 10.28 (13:30) 6.67 (13:30) 1.4 0 1.2 0.2 0
11-01-2018 3.8 (15:40) -0.5 (-00:0) 1.6 14.44 (12:20) 8.61 (15:00) 0 0 0 0 0
10-01-2018 5 (11:20) 1.1 (00:00) 3.1 15.83 (16:10) 10 (16:10) 1.4 0 0 0.2 1.2
09-01-2018 4 (12:30) -3.8 (-00:0) 0.1 11.67 (21:10) 5.83 (10:40) 0 0 0 0 0
08-01-2018 7.5 (15:00) -6.3 (-00:0) 0.6 4.44 (13:50) 3.06 (13:50) 0 0 0 0 0
07-01-2018 3.7 (14:40) -4.4 (-00:0) -0.4 6.39 (19:20) 5 (18:50) 3.4 0 1.4 2 0
06-01-2018 8.3 (13:40) -0.1 (00:00) 4.1 11.67 (14:50) 7.78 (14:10) 6 0 0.2 0.8 5
05-01-2018 9.4 (15:20) 4.6 (00:00) 7 18.33 (12:50) 11.11 (12:00) 0 0 0 0 0
04-01-2018 11.2 (14:20) 7 (23:59) 9.1 14.72 (15:50) 9.44 (15:50) 0 0 0 0 0
03-01-2018 12.5 (15:10) 5.7 (00:00) 9.1 13.61 (14:40) 8.33 (14:50) 0 0 0 0 0
02-01-2018 10 (14:30) 2.4 (00:00) 6.2 13.89 (14:20) 9.44 (16:30) 0 0 0 0 0
01-01-2018 7.6 (13:20) -1 (-00:0) 3.3 18.61 (13:40) 12.5 (13:50) 0 0 0 0 0
31-12-2017 10.9 (13:40) 0 (00:00) 5.4 15.83 (19:50) 8.89 (15:40) 1 0 0 0 1
30-12-2017 11.9 (12:40) 2.8 (00:00) 7.3 12.78 (02:10) 7.5 (20:20) 0 0 0 0 0
29-12-2017 10.4 (15:50) 1.1 (00:00) 5.7 13.33 (11:00) 8.61 (11:30) 0 0 0 0 0
28-12-2017 8.5 (17:10) 1.3 (00:00) 4.9 15 (12:10) 9.17 (12:00) 0.4 0.2 0 0.2 0
27-12-2017 5.1 (13:00) 1.1 (00:00) 3.1 20 (02:10) 12.78 (02:10) 4.6 4.6 0 0 0
26-12-2017 4.9 (00:10) 1.4 (00:00) 3.2 17.22 (23:20) 10.83 (20:00) 1.6 1.6 0 0 0
25-12-2017 11.2 (13:50) -3.7 (-00:0) 3.7 10.28 (16:10) 6.67 (16:10) 0 0 0 0 0
24-12-2017 13.4 (12:40) -2 (-00:0) 5.7 3.89 (14:30) 2.78 (00:30) 0 0 0 0 0
23-12-2017 11.3 (15:40) -1.7 (-00:0) 4.8 5.28 (13:30) 3.33 (13:30) 0 0 0 0 0
22-12-2017 11.4 (14:50) -1.7 (-00:0) 4.8 8.89 (10:20) 6.39 (10:30) 0 0 0 0 0

Gráficas

Temp. máximas Temp. mínimas Temp. medias Precipitaciones Rachas de viento máximas Velocidades máximas media en intervalos de 10 minutos

Datos horarios

Fecha y hora oficial Temperatura (ºC) Velocidad del viento (km/h) Dirección del viento Racha (km/h) Dirección de racha Precipitación (mm) Presión (hPa) Tendencia (hPa) Humedad (%)
2018-01-20 23:00:00 5.2 18 Oeste 28 Noroeste 0 -- -- 75
2018-01-20 22:00:00 5.9 22 Oeste 31 Oeste 0 -- -- 72
2018-01-20 21:00:00 6 14 Noroeste 31 Oeste 0 -- -- 71
2018-01-20 20:00:00 5.2 17 Noroeste 27 Noroeste 0 -- -- 62
2018-01-20 19:00:00 6.2 3 Oeste 23 Oeste 0 -- -- 60
2018-01-20 18:00:00 8.6 17 Oeste 40 Oeste 0 -- -- 52
2018-01-20 17:00:00 10.3 26 Oeste 43 Oeste 0 -- -- 47
2018-01-20 16:00:00 11 25 Noroeste 46 Oeste 0 -- -- 43
2018-01-20 15:00:00 10.8 26 Noroeste 49 Noroeste 0 -- -- 42
2018-01-20 14:00:00 10.4 26 Oeste 44 Oeste 0 -- -- 39
2018-01-20 13:00:00 9.9 23 Oeste 43 Noroeste 0 -- -- 42
2018-01-20 12:00:00 8.3 22 Oeste 39 Oeste 0 -- -- 57
2018-01-20 11:00:00 5.8 19 Oeste 31 Oeste 0 -- -- 76
2018-01-20 10:00:00 4.1 11 Oeste 23 Oeste 0 -- -- 79
2018-01-20 09:00:00 0.7 17 Oeste 23 Oeste 0 -- -- 89
2018-01-20 08:00:00 1 13 Oeste 25 Oeste 0 -- -- 90
2018-01-20 07:00:00 0.1 12 Noroeste 25 Noroeste 0 -- -- 90
2018-01-20 06:00:00 0.5 13 Oeste 23 Oeste 0 -- -- 90
2018-01-20 05:00:00 0.6 13 Noroeste 22 Oeste 0 -- -- 89
2018-01-20 04:00:00 1 15 Oeste 21 Oeste 0 -- -- 86
2018-01-20 03:00:00 1 13 Oeste 22 Oeste 0 -- -- 86
2018-01-20 02:00:00 1.1 12 Oeste 17 Oeste 0 -- -- 87
2018-01-20 01:00:00 1.6 13 Oeste 19 Noroeste 0 -- -- 85
2018-01-20 00:00:00 1.4 10 Oeste 15 Noroeste 0 -- -- 91
2018-01-19 23:00:00 3 10 Oeste 15 Noroeste 0 -- -- 85
2018-01-19 22:00:00 4.3 9 Noroeste 15 Noroeste 0 -- -- 89
2018-01-19 21:00:00 4.8 3 Noroeste 13 Nordeste 0 -- -- 94
2018-01-19 20:00:00 5.4 7 Nordeste 13 Nordeste 0 -- -- 90
2018-01-19 19:00:00 6.1 5 Norte 11 Oeste 0 -- -- 72
2018-01-19 18:00:00 8 8 Noroeste 31 Noroeste 0 -- -- 64
2018-01-19 17:00:00 10 15 Noroeste 28 Noroeste 0 -- -- 56
2018-01-19 16:00:00 10.4 15 Noroeste 30 Noroeste 0 -- -- 54
2018-01-19 15:00:00 10.4 13 Noroeste 28 Norte 0 -- -- 54
2018-01-19 14:00:00 10.1 14 Norte 28 Norte 0 -- -- 56
2018-01-19 13:00:00 10.5 7 Norte 15 Norte 0 -- -- 55
2018-01-19 12:00:00 9.4 6 Noroeste 17 Noroeste 0 -- -- 60
2018-01-19 11:00:00 5.9 0 Calma 11 Oeste 0 -- -- 74
2018-01-19 10:00:00 2.1 0 Calma 9 Oeste 0 -- -- 83
2018-01-19 09:00:00 -0.8 7 Oeste 12 Oeste 0 -- -- 88
2018-01-19 08:00:00 -0.8 6 Oeste 9 Oeste 0 -- -- 89
2018-01-19 07:00:00 -1.9 0 Calma 9 Oeste 0 -- -- 90
2018-01-19 06:00:00 -1 5 Oeste 10 Oeste 0 -- -- 87
2018-01-19 05:00:00 -1.7 4 Oeste 6 Oeste 0 -- -- 89
2018-01-19 04:00:00 -1.3 5 Oeste 11 Oeste 0 -- -- 85
2018-01-19 03:00:00 0.6 10 Oeste 13 Oeste 0 -- -- 77
2018-01-19 02:00:00 1.3 10 Oeste 15 Sudoeste 0 -- -- 74
2018-01-19 01:00:00 1.4 12 Oeste 15 Oeste 0 -- -- 74
2018-01-19 00:00:00 1.5 5 Oeste 10 Oeste 0 -- -- 76
2018-01-18 23:00:00 1.8 7 Oeste 14 Oeste 0 -- -- 75
2018-01-18 22:00:00 1.7 7 Oeste 12 Sudoeste 0 -- -- 76
2018-01-18 21:00:00 1.9 5 Oeste 10 Oeste 0 -- -- 74
2018-01-18 20:00:00 1.9 3 Sudoeste 7 Oeste 0 -- -- 74
2018-01-18 19:00:00 2.7 4 Oeste 8 Oeste 0 -- -- 72
2018-01-18 18:00:00 6.9 2 Oeste 5 Sudeste 0 -- -- 60
2018-01-18 17:00:00 13.6 5 Este 15 Nordeste 0 -- -- 41
2018-01-18 16:00:00 14.4 10 Nordeste 16 Este 0 -- -- 40
2018-01-18 15:00:00 15.1 5 Nordeste 12 Nordeste 0 -- -- 31
2018-01-18 14:00:00 15.3 3 Nordeste 10 Sudeste 0 -- -- 31
2018-01-18 13:00:00 13.2 4 Sudeste 12 Sudeste 0 -- -- 38
2018-01-18 12:00:00 10.6 6 Sudeste 11 Sudeste 0 -- -- 49
2018-01-18 11:00:00 10.8 0 Calma 6 Oeste 0 -- -- 42
2018-01-18 10:00:00 5.3 5 Este 14 Oeste 0 -- -- 63
2018-01-18 09:00:00 1.1 2 Sudoeste 13 Oeste 0 -- -- 74
2018-01-18 08:00:00 -0.7 0 Calma 9 Oeste 0 -- -- 80
2018-01-18 07:00:00 -1.1 3 Noroeste 10 Sur 0 -- -- 85
2018-01-18 06:00:00 0.2 3 Noroeste 13 Noroeste 0 -- -- 81
2018-01-18 05:00:00 -0.2 3 Norte 17 Oeste 0 -- -- 82
2018-01-18 04:00:00 -0.2 5 Oeste 18 Oeste 0 -- -- 84
2018-01-18 03:00:00 -1.2 0 Calma 9 Sudeste 0 -- -- 89
2018-01-18 02:00:00 -0.6 3 Nordeste 18 Oeste 0 -- -- 85
2018-01-18 01:00:00 -1 5 Oeste 9 Oeste 0 -- -- 89
2018-01-18 00:00:00 -0.6 7 Oeste 13 Oeste 0 -- -- 87
2018-01-17 23:00:00 -0.9 7 Oeste 9 Oeste 0 -- -- 85
2018-01-17 22:00:00 0.8 5 Noroeste 11 Oeste 0 -- -- 79
2018-01-17 21:00:00 1.6 8 Oeste 14 Oeste 0 -- -- 76
2018-01-17 20:00:00 4.1 7 Noroeste 22 Noroeste 0 -- -- 66
2018-01-17 19:00:00 4.2 4 Sudeste 19 Oeste 0 -- -- 69
2018-01-17 18:00:00 6.5 12 Noroeste 21 Noroeste 0 -- -- 58
2018-01-17 17:00:00 8.8 12 Noroeste 25 Noroeste 0 -- -- 51
2018-01-17 16:00:00 9.4 13 Norte 28 Noroeste 0 -- -- 52
2018-01-17 15:00:00 9.7 15 Noroeste 31 Oeste 0 -- -- 55
2018-01-17 14:00:00 9.1 17 Noroeste 31 Noroeste 0 -- -- 60
2018-01-17 13:00:00 8.1 14 Noroeste 30 Oeste 0 -- -- 66
2018-01-17 12:00:00 7.7 18 Noroeste 34 Noroeste 0 -- -- 70
2018-01-17 11:00:00 6.1 18 Noroeste 35 Oeste 0 -- -- 80
2018-01-17 10:00:00 5.6 17 Noroeste 32 Noroeste 0 -- -- 81
2018-01-17 09:00:00 5.8 14 Noroeste 32 Noroeste 0 -- -- 82
2018-01-17 08:00:00 5.6 12 Oeste 31 Oeste 0 -- -- 85
2018-01-17 07:00:00 5.4 24 Oeste 40 Oeste 0 -- -- 85
2018-01-17 06:00:00 4.2 12 Oeste 35 Oeste 0 -- -- 93
2018-01-17 05:00:00 4 12 Noroeste 24 Oeste 0 -- -- 93
2018-01-17 04:00:00 3.7 10 Noroeste 22 Oeste 0 -- -- 93
2018-01-17 03:00:00 3.6 12 Oeste 31 Oeste 0 -- -- 93
2018-01-17 02:00:00 4.1 14 Oeste 28 Oeste 0 -- -- 93
2018-01-17 01:00:00 3.8 13 Oeste 28 Oeste 0 -- -- 92
2018-01-17 00:00:00 3.7 10 Oeste 25 Oeste 0 -- -- 92
2018-01-16 23:00:00 3.9 16 Oeste 29 Oeste 0 -- -- 92
2018-01-16 22:00:00 4.3 11 Oeste 26 Oeste 0 -- -- 90
2018-01-16 21:00:00 4.8 10 Noroeste 33 Oeste 0 -- -- 88
2018-01-16 20:00:00 6.3 17 Oeste 27 Oeste 0 -- -- 82
2018-01-16 19:00:00 7 12 Oeste 25 Oeste 0 -- -- 79
2018-01-16 18:00:00 8.7 18 Oeste 38 Oeste 0 -- -- 74
2018-01-16 17:00:00 11.5 17 Noroeste 35 Oeste 0 -- -- 65
2018-01-16 16:00:00 11.4 21 Oeste 33 Oeste 0 -- -- 65
2018-01-16 15:00:00 10.9 27 Oeste 46 Oeste 0 -- -- 69
2018-01-16 14:00:00 9.3 26 Noroeste 45 Oeste 0 -- -- 73
2018-01-16 13:00:00 7.2 33 Oeste 49 Oeste 0 -- -- 82
2018-01-16 12:00:00 6.5 32 Oeste 46 Oeste 0 -- -- 83
2018-01-16 11:00:00 6.5 24 Oeste 40 Oeste 0 -- -- 80
2018-01-16 10:00:00 4.5 20 Oeste 37 Oeste 0 -- -- 79
2018-01-16 09:00:00 2.7 17 Oeste 31 Oeste 0 -- -- 82
2018-01-16 08:00:00 1.5 20 Oeste 34 Oeste 0 -- -- 76
2018-01-16 07:00:00 2.5 27 Oeste 38 Oeste 0 -- -- 72
2018-01-16 06:00:00 1.5 26 Oeste 39 Oeste 0 -- -- 76
2018-01-16 05:00:00 1.3 21 Oeste 34 Oeste 0 -- -- 77
2018-01-16 04:00:00 0.9 19 Oeste 29 Oeste 0 -- -- 77
2018-01-16 03:00:00 0.9 18 Noroeste 33 Oeste 0 -- -- 77
2018-01-16 02:00:00 1 25 Oeste 35 Oeste 0 -- -- 80
2018-01-16 01:00:00 1.3 23 Oeste 33 Oeste 0 -- -- 80
2018-01-16 00:00:00 0.7 15 Oeste 32 Oeste 0 -- -- 81
2018-01-15 23:00:00 1.1 18 Oeste 32 Oeste 0 -- -- 78
2018-01-15 22:00:00 1.5 21 Oeste 36 Oeste 0 -- -- 75
2018-01-15 21:00:00 2.3 24 Oeste 36 Oeste 0 -- -- 76
2018-01-15 20:00:00 2.8 18 Oeste 31 Oeste 0 -- -- 74
2018-01-15 19:00:00 3.2 18 Oeste 27 Oeste 0 -- -- 71
2018-01-15 18:00:00 3.9 11 Oeste 27 Oeste 0 -- -- 68
2018-01-15 17:00:00 5.3 13 Noroeste 27 Oeste 0 -- -- 64
2018-01-15 16:00:00 6.2 15 Oeste 27 Oeste 0 -- -- 61
2018-01-15 15:00:00 6 15 Noroeste 23 Noroeste 0 -- -- 62
2018-01-15 14:00:00 5 13 Oeste 21 Oeste 0 -- -- 70
2018-01-15 13:00:00 4 9 Oeste 23 Oeste 0 -- -- 73
2018-01-15 12:00:00 3.5 6 Oeste 13 Oeste 0 -- -- 75
2018-01-15 11:00:00 1.4 6 Oeste 15 Noroeste 0 -- -- 83
2018-01-15 10:00:00 1.7 8 Sudoeste 15 Sudoeste 0 -- -- 81
2018-01-15 09:00:00 -0.1 5 Sudoeste 14 Sudoeste 0 -- -- 89
2018-01-15 08:00:00 -0.6 5 Oeste 17 Oeste 0 -- -- 92
2018-01-15 07:00:00 -0.5 12 Oeste 18 Oeste 0 -- -- 92
2018-01-15 06:00:00 -0.8 11 Oeste 16 Oeste 0 -- -- 93
2018-01-15 05:00:00 -0.6 11 Oeste 15 Oeste 0 -- -- 92
2018-01-15 04:00:00 -0.3 8 Oeste 12 Oeste 0 -- -- 91
2018-01-15 03:00:00 -0.8 5 Oeste 12 Oeste 0 -- -- 94
2018-01-15 02:00:00 -1.5 4 Oeste 10 Oeste 0 -- -- 95
2018-01-15 01:00:00 -0.8 7 Oeste 14 Oeste 0 -- -- 93
2018-01-15 00:00:00 -0.2 5 Oeste 11 Oeste 0 -- -- 93
2018-01-14 23:00:00 -0.2 5 Noroeste 15 Oeste 0 -- -- 93
2018-01-14 22:00:00 0.5 3 Oeste 9 Oeste 0 -- -- 90
2018-01-14 21:00:00 1 0 Calma 8 Oeste 0 -- -- 88
2018-01-14 20:00:00 1.1 3 Noroeste 13 Oeste 0 -- -- 85
2018-01-14 19:00:00 1.3 5 Oeste 14 Noroeste 0 -- -- 80
2018-01-14 18:00:00 1.5 10 Noroeste 21 Noroeste 0 -- -- 79
2018-01-14 17:00:00 2.4 9 Noroeste 20 Oeste 0 -- -- 75
2018-01-14 16:00:00 2.6 8 Noroeste 28 Oeste 0 -- -- 78
2018-01-14 15:00:00 2.6 16 Oeste 26 Oeste 0 -- -- 78
2018-01-14 14:00:00 3.5 14 Noroeste 27 Oeste 0 -- -- 71
2018-01-14 13:00:00 2.8 19 Oeste 28 Oeste 0 -- -- 78
2018-01-14 12:00:00 2.8 17 Oeste 30 Oeste 0.4 -- -- 78
2018-01-14 11:00:00 0.8 18 Oeste 31 Oeste 0.6 -- -- 85
2018-01-14 10:00:00 0.9 20 Oeste 36 Oeste 0 -- -- 88
2018-01-14 09:00:00 -0.2 16 Oeste 26 Noroeste 0 -- -- 90
2018-01-14 08:00:00 -0.7 18 Oeste 35 Oeste 0 -- -- 92
2018-01-14 07:00:00 -0.2 18 Oeste 33 Oeste 0 -- -- 95
2018-01-14 06:00:00 -0.2 14 Oeste 26 Oeste 0 -- -- 94
2018-01-14 05:00:00 0.1 13 Oeste 24 Oeste 0 -- -- 91
2018-01-14 04:00:00 0.1 15 Oeste 29 Oeste 0 -- -- 90
2018-01-14 03:00:00 -0.1 21 Oeste 33 Oeste 0 -- -- 91
2018-01-14 02:00:00 0.3 21 Oeste 37 Oeste 0 -- -- 90
2018-01-14 01:00:00 0.7 19 Oeste 34 Oeste 0 -- -- 89
2018-01-14 00:00:00 0.7 18 Oeste 35 Oeste 0 -- -- 89
2018-01-13 23:00:00 0.9 12 Oeste 28 Oeste 0.2 -- -- 90
2018-01-13 22:00:00 1 13 Oeste 24 Oeste 0 -- -- 90
2018-01-13 21:00:00 0.6 4 Noroeste 12 Oeste 0 -- -- 94
2018-01-13 20:00:00 0.6 4 Noroeste 11 Sur 0 -- -- 91
2018-01-13 19:00:00 2.9 2 Sudeste 12 Sudoeste 0 -- -- 70
2018-01-13 18:00:00 3.2 10 Sudoeste 28 Oeste 0 -- -- 67
2018-01-13 17:00:00 5 15 Oeste 27 Oeste 0 -- -- 45
2018-01-13 16:00:00 6.9 7 Oeste 21 Sudoeste 0 -- -- 37
2018-01-13 15:00:00 6.5 0 Calma 9 Sudeste 0 -- -- 51
2018-01-13 14:00:00 5.1 5 Sudeste 10 Sudeste 0 -- -- 56
2018-01-13 13:00:00 3.6 3 Sur 8 Sudeste 0 -- -- 67
2018-01-13 12:00:00 3.3 2 Sudeste 6 Este 0 -- -- 66
2018-01-13 11:00:00 3.2 0 Calma 5 Oeste 0 -- -- 58
2018-01-13 10:00:00 3 0 Calma 10 Sur 0 -- -- 59
2018-01-13 09:00:00 -1 5 Sudeste 10 Oeste 0 -- -- 73
2018-01-13 08:00:00 -1.9 6 Oeste 12 Oeste 0 -- -- 76
2018-01-13 07:00:00 -1.5 8 Oeste 16 Oeste 0 -- -- 76
2018-01-13 06:00:00 -2.2 2 Oeste 14 Oeste 0 -- -- 77
2018-01-13 05:00:00 -0.7 16 Oeste 25 Oeste 0 -- -- 74
2018-01-13 04:00:00 -1.8 0 Calma 8 Noroeste 0 -- -- 85
2018-01-13 03:00:00 -0.8 4 Sur 19 Oeste 0 -- -- 81
2018-01-13 02:00:00 -1 5 Oeste 8 Oeste 0 -- -- 81
2018-01-13 01:00:00 -1.7 0 Calma 10 Oeste 0 -- -- 86
2018-01-13 00:00:00 -0.5 4 Sur 19 Oeste 0 -- -- 84
2018-01-12 23:00:00 0.8 11 Oeste 19 Oeste 0 -- -- 84
2018-01-12 22:00:00 1.4 3 Oeste 14 Oeste 0 -- -- 81
2018-01-12 21:00:00 1.2 8 Noroeste 16 Oeste 0 -- -- 79
2018-01-12 20:00:00 1.6 10 Oeste 26 Oeste 0 -- -- 77
2018-01-12 19:00:00 1.8 13 Oeste 21 Oeste 0 -- -- 75
2018-01-12 18:00:00 2.4 9 Oeste 26 Noroeste 0 -- -- 73
2018-01-12 17:00:00 4.5 14 Noroeste 32 Oeste 0 -- -- 66
2018-01-12 16:00:00 6.3 17 Oeste 28 Oeste 0 -- -- 60
2018-01-12 15:00:00 5.5 21 Oeste 30 Oeste 0 -- -- 65
2018-01-12 14:00:00 4.6 20 Oeste 37 Oeste 0 -- -- 72
2018-01-12 13:00:00 3.5 22 Oeste 33 Oeste 0.2 -- -- 79
2018-01-12 12:00:00 2.6 17 Oeste 27 Oeste 1.2 -- -- 85
2018-01-12 11:00:00 1.1 10 Oeste 23 Oeste 0 -- -- 89
2018-01-12 10:00:00 0.2 12 Oeste 20 Oeste 0 -- -- 92
2018-01-12 09:00:00 -0.7 16 Oeste 23 Oeste 0 -- -- 94
2018-01-12 08:00:00 -0.6 13 Oeste 20 Oeste 0 -- -- 94
2018-01-12 07:00:00 -0.7 12 Oeste 23 Oeste 0 -- -- 95
2018-01-12 06:00:00 -0.2 12 Oeste 23 Noroeste 0 -- -- 96
2018-01-12 05:00:00 -0.1 12 Oeste 28 Oeste 0 -- -- 96
2018-01-12 04:00:00 0 17 Oeste 28 Oeste 0 -- -- 96
2018-01-12 03:00:00 0.1 13 Oeste 23 Oeste 0 -- -- 96
2018-01-12 02:00:00 0.1 14 Oeste 33 Oeste 0 -- -- 94
2018-01-12 01:00:00 -0.2 17 Oeste 35 Oeste 0 -- -- 95
2018-01-12 00:00:00 -0.4 15 Oeste 31 Oeste 0 -- -- 95
2018-01-11 23:00:00 0.5 15 Oeste 28 Oeste 0 -- -- 81
2018-01-11 22:00:00 0.9 14 Oeste 32 Oeste 0 -- -- 77
2018-01-11 21:00:00 0.2 14 Oeste 31 Oeste 0 -- -- 88
2018-01-11 20:00:00 0.8 23 Oeste 33 Oeste 0 -- -- 78
2018-01-11 19:00:00 1.2 15 Noroeste 39 Oeste 0 -- -- 74
2018-01-11 18:00:00 1.5 22 Oeste 39 Oeste 0 -- -- 73
2018-01-11 17:00:00 2.3 26 Oeste 43 Oeste 0 -- -- 66
2018-01-11 16:00:00 3 24 Noroeste 46 Oeste 0 -- -- 64
2018-01-11 15:00:00 2.8 31 Oeste 49 Oeste 0 -- -- 67
2018-01-11 14:00:00 2.5 24 Noroeste 45 Oeste 0 -- -- 69
2018-01-11 13:00:00 2.1 29 Noroeste 52 Oeste 0 -- -- 70
2018-01-11 12:00:00 1.4 22 Noroeste 42 Oeste 0 -- -- 77
2018-01-11 11:00:00 0.9 19 Noroeste 40 Oeste 0 -- -- 79
2018-01-11 10:00:00 0.5 23 Noroeste 45 Oeste 0 -- -- 80
2018-01-11 09:00:00 0.2 19 Oeste 35 Noroeste 0 -- -- 87
2018-01-11 08:00:00 0 22 Oeste 42 Oeste 0 -- -- 87
2018-01-11 07:00:00 0.7 26 Oeste 45 Oeste 0 -- -- 81
2018-01-11 06:00:00 0.6 21 Oeste 37 Oeste 0 -- -- 83
2018-01-11 05:00:00 -0.3 15 Oeste 31 Oeste 0 -- -- 84
2018-01-11 04:00:00 -0.5 16 Oeste 31 Oeste 0 -- -- 84
2018-01-11 03:00:00 -0.4 16 Oeste 33 Oeste 0 -- -- 86
2018-01-11 02:00:00 -0.1 16 Oeste 34 Oeste 0 -- -- 86
2018-01-11 01:00:00 0.7 17 Oeste 46 Noroeste 0 -- -- 86
2018-01-11 00:00:00 1.3 23 Oeste 45 Oeste 0.2 -- -- 87
2018-01-10 23:00:00 1.4 22 Oeste 37 Oeste 0 -- -- 92
2018-01-10 22:00:00 1.9 22 Oeste 45 Oeste 0 -- -- 90
2018-01-10 21:00:00 1.2 17 Noroeste 42 Oeste 1 -- -- 93
2018-01-10 20:00:00 2.9 21 Oeste 44 Oeste 0 -- -- 87
2018-01-10 19:00:00 3.2 26 Oeste 50 Oeste 0 -- -- 85
2018-01-10 18:00:00 3.2 27 Oeste 54 Oeste 0 -- -- 82
2018-01-10 17:00:00 4.2 31 Oeste 57 Oeste 0 -- -- 81
2018-01-10 16:00:00 4.5 30 Oeste 51 Oeste 0 -- -- 78
2018-01-10 15:00:00 3.7 23 Oeste 53 Oeste 0 -- -- 81
2018-01-10 14:00:00 4.1 30 Oeste 54 Oeste 0 -- -- 79
2018-01-10 13:00:00 4.1 23 Oeste 45 Oeste 0.2 -- -- 80
2018-01-10 12:00:00 4.9 25 Oeste 39 Oeste 0 -- -- 76
2018-01-10 11:00:00 4.2 19 Oeste 34 Oeste 0 -- -- 80
2018-01-10 10:00:00 2.1 13 Oeste 33 Oeste 0 -- -- 92
2018-01-10 09:00:00 1.9 16 Oeste 31 Oeste 0 -- -- 93
2018-01-10 08:00:00 1.9 13 Oeste 22 Oeste 0 -- -- 94
2018-01-10 07:00:00 1.6 8 Oeste 13 Oeste 0 -- -- 94
2018-01-10 06:00:00 1.7 6 Oeste 22 Oeste 0 -- -- 92
2018-01-10 05:00:00 1.8 14 Oeste 23 Oeste 0 -- -- 91
2018-01-10 04:00:00 2.5 11 Oeste 22 Sudoeste 0 -- -- 89
2018-01-10 03:00:00 2.4 7 Oeste 15 Oeste 0 -- -- 88
2018-01-10 02:00:00 2.5 10 Oeste 21 Oeste 0 -- -- 87
2018-01-10 01:00:00 2.9 11 Oeste 26 Oeste 0 -- -- 84
2018-01-10 00:00:00 2.9 13 Oeste 35 Oeste 0 -- -- 83
2018-01-09 23:00:00 2.7 16 Oeste 29 Noroeste 0 -- -- 84
2018-01-09 22:00:00 1.5 13 Oeste 42 Sudoeste 0 -- -- 81
2018-01-09 21:00:00 1.7 19 Sudoeste 39 Sudoeste 0 -- -- 78
2018-01-09 20:00:00 1.7 9 Oeste 23 Oeste 0 -- -- 71
2018-01-09 19:00:00 1.9 9 Sudoeste 21 Sudoeste 0 -- -- 69
2018-01-09 18:00:00 1.9 6 Oeste 18 Sudoeste 0 -- -- 64
2018-01-09 17:00:00 1.8 13 Oeste 24 Oeste 0 -- -- 69
2018-01-09 16:00:00 2.2 11 Oeste 37 Oeste 0 -- -- 65
2018-01-09 15:00:00 2.7 18 Oeste 37 Oeste 0 -- -- 62
2018-01-09 14:00:00 2.8 16 Oeste 33 Sudoeste 0 -- -- 61
2018-01-09 13:00:00 2.9 21 Oeste 36 Oeste 0 -- -- 64
2018-01-09 12:00:00 3.4 14 Sudoeste 27 Oeste 0 -- -- 60
2018-01-09 11:00:00 1.7 13 Sudoeste 41 Oeste 0 -- -- 74
2018-01-09 10:00:00 0 16 Oeste 30 Oeste 0 -- -- 80
2018-01-09 09:00:00 -1.4 19 Oeste 32 Sudoeste 0 -- -- 82
2018-01-09 08:00:00 -2 11 Oeste 28 Sudoeste 0 -- -- 82
2018-01-09 07:00:00 -0.4 19 Oeste 32 Oeste 0 -- -- 78
2018-01-09 06:00:00 -0.9 13 Oeste 24 Oeste 0 -- -- 80
2018-01-09 05:00:00 -0.8 10 Oeste 23 Sudoeste 0 -- -- 83
2018-01-09 04:00:00 -3.7 0 Calma 12 Oeste 0 -- -- 90
2018-01-09 03:00:00 -1.9 7 Noroeste 21 Sudoeste 0 -- -- 86
2018-01-09 02:00:00 0.2 10 Oeste 21 Oeste 0 -- -- 80
2018-01-09 01:00:00 -1.2 10 Noroeste 16 Oeste 0 -- -- 87
2018-01-09 00:00:00 -2.2 4 Nordeste 13 Oeste 0 -- -- 91
2018-01-08 23:00:00 -0.5 9 Oeste 15 Oeste 0 -- -- 87
2018-01-08 22:00:00 -1.5 8 Oeste 13 Oeste 0 -- -- 87
2018-01-08 21:00:00 -0.9 5 Oeste 12 Oeste 0 -- -- 86
2018-01-08 20:00:00 -1.4 8 Oeste 9 Oeste 0 -- -- 89
2018-01-08 19:00:00 -1.1 3 Oeste 10 Oeste 0 -- -- 85
2018-01-08 18:00:00 1.3 5 Oeste 7 Nordeste 0 -- -- 74
2018-01-08 17:00:00 5.8 5 Nordeste 10 Nordeste 0 -- -- 57
2018-01-08 16:00:00 6.4 5 Nordeste 10 Nordeste 0 -- -- 61
2018-01-08 15:00:00 7.5 2 Este 13 Nordeste 0 -- -- 55
2018-01-08 14:00:00 4.7 10 Nordeste 16 Nordeste 0 -- -- 65
2018-01-08 13:00:00 6.6 4 Nordeste 10 Nordeste 0 -- -- 62
2018-01-08 12:00:00 4.1 3 Sur 13 Sudeste 0 -- -- 68
2018-01-08 11:00:00 4.6 0 Calma 8 Sudoeste 0 -- -- 68
2018-01-08 10:00:00 0.1 3 Oeste 9 Oeste 0 -- -- 78
2018-01-08 09:00:00 -4.9 4 Oeste 9 Oeste 0 -- -- 91
2018-01-08 08:00:00 -6.1 0 Calma 6 Oeste 0 -- -- 93
2018-01-08 07:00:00 -5.9 5 Oeste 7 Oeste 0 -- -- 92
2018-01-08 06:00:00 -5.9 3 Oeste 9 Oeste 0 -- -- 91
2018-01-08 05:00:00 -5.2 6 Oeste 13 Oeste 0 -- -- 90
2018-01-08 04:00:00 -4.7 6 Oeste 9 Oeste 0 -- -- 90
2018-01-08 03:00:00 -4.8 4 Oeste 12 Oeste 0 -- -- 91
2018-01-08 02:00:00 -4.6 8 Oeste 10 Oeste 0 -- -- 91
2018-01-08 01:00:00 -4.8 4 Oeste 8 Oeste 0 -- -- 91
2018-01-08 00:00:00 -4.3 5 Oeste 8 Oeste 0 -- -- 91
2018-01-07 23:00:00 -3.1 4 Oeste 11 Oeste 0 -- -- 89
2018-01-07 22:00:00 -2.3 7 Oeste 14 Oeste 0 -- -- 85
2018-01-07 21:00:00 -1.9 2 Oeste 22 Sudoeste 0 -- -- 83
2018-01-07 20:00:00 -0.4 14 Sudoeste 23 Sudoeste 0 -- -- 76
2018-01-07 19:00:00 0.1 16 Sudoeste 23 Sudoeste 0 -- -- 77
2018-01-07 18:00:00 0.2 8 Sudoeste 22 Sudeste 0 -- -- 77
2018-01-07 17:00:00 3.1 12 Sudeste 21 Sudeste 0 -- -- 72
2018-01-07 16:00:00 2.1 10 Sur 22 Sudeste 0 -- -- 78
2018-01-07 15:00:00 3.2 10 Sur 22 Sudoeste 0 -- -- 75
2018-01-07 14:00:00 1.9 11 Sur 23 Sudeste 0.8 -- -- 81
2018-01-07 13:00:00 1.6 0 Calma 13 Sudeste 1.2 -- -- 97
2018-01-07 12:00:00 1.6 0 Calma -- -- 1.4 -- -- 97
2018-01-07 11:00:00 -0.5 0 Calma -- -- 0 -- -- 98
2018-01-07 10:00:00 -0.8 0 Calma -- -- 0 -- -- 99
2018-01-07 09:00:00 -1.1 0 Calma -- -- 0 -- -- 99
2018-01-07 08:00:00 -1.4 0 Calma -- -- 0 -- -- 99
2018-01-07 07:00:00 -1.6 0 Calma -- -- 0 -- -- 98
2018-01-07 06:00:00 -1.6 0 Calma -- -- 0 -- -- 98
2018-01-07 05:00:00 -1.4 0 Calma -- -- 0 -- -- 98
2018-01-07 04:00:00 -1.4 0 Calma -- -- 0 -- -- 98
2018-01-07 03:00:00 -1.3 0 Calma -- -- 0 -- -- 98
2018-01-07 02:00:00 -1.2 0 Calma -- -- 0 -- -- 98
2018-01-07 01:00:00 -0.6 0 Calma -- -- 0 -- -- 98
2018-01-07 00:00:00 0 0 Calma -- -- 0.2 -- -- 98
2018-01-06 23:00:00 -0.1 0 Calma -- -- 0 -- -- 98
2018-01-06 22:00:00 0 0 Calma 19 Nordeste 0.4 -- -- 97
2018-01-06 21:00:00 0.8 4 Este 25 Nordeste 3.6 -- -- 97
2018-01-06 20:00:00 1.7 21 Nordeste 36 Nordeste 0.4 -- -- 96
2018-01-06 19:00:00 2.5 21 Nordeste 31 Este 0.4 -- -- 95
2018-01-06 18:00:00 4 13 Este 32 Sudeste 0.4 -- -- 90
2018-01-06 17:00:00 4.8 24 Sudeste 37 Sudeste 0.2 -- -- 88
2018-01-06 16:00:00 5.5 22 Sudeste 36 Sudeste 0 -- -- 83
2018-01-06 15:00:00 5.9 23 Sudeste 42 Sudeste 0.2 -- -- 80
2018-01-06 14:00:00 6.9 22 Sudeste 37 Sudeste 0 -- -- 78
2018-01-06 13:00:00 7.8 19 Sudeste 30 Sudeste 0 -- -- 71
2018-01-06 12:00:00 4.6 3 Sudeste 18 Sudeste 0 -- -- 95
2018-01-06 11:00:00 3.3 7 Sudeste 12 Sudeste 0 -- -- 96
2018-01-06 10:00:00 1.6 9 Sudeste 14 Sudeste 0 -- -- 96
2018-01-06 09:00:00 1.3 9 Este 21 Este 0 -- -- 95
2018-01-06 08:00:00 2.2 5 Sudeste 12 Oeste 0 -- -- 94
2018-01-06 07:00:00 2 4 Oeste 11 Nordeste 0.2 -- -- 93
2018-01-06 06:00:00 2.1 10 Oeste 36 Oeste 0 -- -- 92
2018-01-06 05:00:00 6.8 10 Sudoeste 21 Sudoeste 0 -- -- 76
2018-01-06 04:00:00 6.6 6 Sur 19 Sudoeste 0 -- -- 78
2018-01-06 03:00:00 4.6 4 Sudeste 13 Sur 0 -- -- 88
2018-01-06 02:00:00 5.8 8 Sur 17 Sur 0 -- -- 84
2018-01-06 01:00:00 5.8 5 Sur 16 Sudeste 0 -- -- 81
2018-01-06 00:00:00 5.9 6 Sudoeste 16 Sur 0 -- -- 81
2018-01-05 23:00:00 5.7 6 Sur 16 Sudoeste 0 -- -- 83
2018-01-05 22:00:00 5.4 3 Sur 13 Sudoeste 0 -- -- 83
2018-01-05 21:00:00 4.8 5 Sudoeste 12 Sudoeste 0 -- -- 83
2018-01-05 20:00:00 5.3 7 Sudoeste 18 Sudoeste 0 -- -- 80
2018-01-05 19:00:00 5.4 7 Oeste 23 Sudoeste 0 -- -- 77
2018-01-05 18:00:00 6.7 14 Sudoeste 28 Sudoeste 0 -- -- 73
2018-01-05 17:00:00 7.3 15 Oeste 37 Sudoeste 0 -- -- 70
2018-01-05 16:00:00 8 16 Oeste 40 Sudoeste 0 -- -- 68
2018-01-05 15:00:00 8.7 26 Oeste 51 Oeste 0 -- -- 63
2018-01-05 14:00:00 8.8 33 Oeste 60 Oeste 0 -- -- 61
2018-01-05 13:00:00 9 36 Oeste 66 Oeste 0 -- -- 57
2018-01-05 12:00:00 8.2 40 Oeste 61 Oeste 0 -- -- 63
2018-01-05 11:00:00 8.3 28 Oeste 60 Oeste 0 -- -- 66
2018-01-05 10:00:00 7.3 23 Oeste 51 Oeste 0 -- -- 71
2018-01-05 09:00:00 5.8 23 Oeste 49 Sudoeste 0 -- -- 78
2018-01-05 08:00:00 6.1 17 Oeste 35 Oeste 0 -- -- 78
2018-01-05 07:00:00 5.9 19 Oeste 50 Oeste 0 -- -- 79
2018-01-05 06:00:00 5.8 31 Oeste 60 Oeste 0 -- -- 81
2018-01-05 05:00:00 6.1 16 Sudoeste 47 Oeste 0 -- -- 82
2018-01-05 04:00:00 6.2 16 Oeste 42 Oeste 0 -- -- 82
2018-01-05 03:00:00 6.6 17 Oeste 31 Oeste 0 -- -- 82
2018-01-05 02:00:00 6.9 9 Oeste 28 Oeste 0 -- -- 83
2018-01-05 01:00:00 6.8 16 Oeste 36 Oeste 0 -- -- 83
2018-01-05 00:00:00 7 16 Oeste 31 Oeste 0 -- -- 82
2018-01-04 23:00:00 7.5 19 Oeste 35 Oeste 0 -- -- 81
2018-01-04 22:00:00 7.5 20 Oeste 44 Oeste 0 -- -- 81
2018-01-04 21:00:00 7.4 25 Oeste 43 Oeste 0 -- -- 80
2018-01-04 20:00:00 7.4 16 Oeste 32 Oeste 0 -- -- 82
2018-01-04 19:00:00 7.5 20 Oeste 44 Oeste 0 -- -- 81
2018-01-04 18:00:00 7.4 22 Oeste 45 Oeste 0 -- -- 80
2018-01-04 17:00:00 9.5 24 Oeste 49 Oeste 0 -- -- 72
2018-01-04 16:00:00 10.1 33 Oeste 53 Oeste 0 -- -- 70
2018-01-04 15:00:00 11.1 28 Oeste 50 Oeste 0 -- -- 68
2018-01-04 14:00:00 10.9 28 Oeste 46 Oeste 0 -- -- 71
2018-01-04 13:00:00 10.4 27 Oeste 45 Oeste 0 -- -- 77
2018-01-04 12:00:00 10.5 31 Oeste 47 Oeste 0 -- -- 75
2018-01-04 11:00:00 9.7 27 Oeste 45 Oeste 0 -- -- 79
2018-01-04 10:00:00 7.9 18 Oeste 34 Noroeste 0 -- -- 88
2018-01-04 09:00:00 7.5 19 Oeste 38 Oeste 0 -- -- 89
2018-01-04 08:00:00 7.7 22 Oeste 40 Oeste 0 -- -- 89
2018-01-04 07:00:00 8.1 16 Noroeste 42 Oeste 0 -- -- 90
2018-01-04 06:00:00 7.9 16 Noroeste 32 Oeste 0 -- -- 92
2018-01-04 05:00:00 8 18 Oeste 40 Oeste 0 -- -- 92
2018-01-04 04:00:00 8.3 21 Oeste 37 Noroeste 0 -- -- 91
2018-01-04 03:00:00 8.3 23 Oeste 36 Oeste 0 -- -- 90
2018-01-04 02:00:00 8.7 25 Oeste 44 Oeste 0 -- -- 89
2018-01-04 01:00:00 8.9 30 Oeste 43 Oeste 0 -- -- 88
2018-01-04 00:00:00 8.8 26 Oeste 42 Oeste 0 -- -- 90
2018-01-03 23:00:00 8.9 20 Oeste 35 Oeste 0 -- -- 90
2018-01-03 22:00:00 8.8 21 Oeste 38 Oeste 0 -- -- 90
2018-01-03 21:00:00 8.6 20 Oeste 36 Oeste 0 -- -- 90
2018-01-03 20:00:00 8.5 22 Oeste 42 Oeste 0 -- -- 90
2018-01-03 19:00:00 8.6 27 Oeste 42 Oeste 0 -- -- 89
2018-01-03 18:00:00 9 21 Oeste 41 Oeste 0 -- -- 86
2018-01-03 17:00:00 9.6 26 Oeste 44 Oeste 0 -- -- 84
2018-01-03 16:00:00 10.9 25 Oeste 47 Oeste 0 -- -- 78
2018-01-03 15:00:00 12.4 27 Oeste 49 Oeste 0 -- -- 72
2018-01-03 14:00:00 11.5 22 Oeste 43 Oeste 0 -- -- 78
2018-01-03 13:00:00 10.6 23 Oeste 43 Oeste 0 -- -- 79
2018-01-03 12:00:00 9.3 23 Oeste 35 Oeste 0 -- -- 84
2018-01-03 11:00:00 8 17 Oeste 30 Oeste 0 -- -- 91
2018-01-03 10:00:00 7.2 15 Oeste 31 Oeste 0 -- -- 90
2018-01-03 09:00:00 5.9 9 Noroeste 24 Oeste 0 -- -- 94
2018-01-03 08:00:00 6.2 13 Oeste 36 Oeste 0 -- -- 95
2018-01-03 07:00:00 6.1 14 Oeste 25 Oeste 0 -- -- 95
2018-01-03 06:00:00 6.2 18 Oeste 31 Oeste 0 -- -- 94
2018-01-03 05:00:00 7.2 22 Oeste 39 Oeste 0 -- -- 91
2018-01-03 04:00:00 7.4 23 Oeste 39 Oeste 0 -- -- 91
2018-01-03 03:00:00 7.1 12 Oeste 34 Oeste 0 -- -- 91
2018-01-03 02:00:00 7 14 Oeste 29 Oeste 0 -- -- 90
2018-01-03 01:00:00 6.7 6 Noroeste 22 Oeste 0 -- -- 89
2018-01-03 00:00:00 7.4 13 Oeste 33 Oeste 0 -- -- 87
2018-01-02 23:00:00 7 20 Oeste 34 Oeste 0 -- -- 89
2018-01-02 22:00:00 7 20 Oeste 39 Oeste 0 -- -- 87
2018-01-02 21:00:00 7.5 21 Oeste 35 Oeste 0 -- -- 87
2018-01-02 20:00:00 7.6 19 Oeste 39 Oeste 0 -- -- 84
2018-01-02 19:00:00 7.8 22 Oeste 40 Oeste 0 -- -- 82
2018-01-02 18:00:00 7.5 22 Oeste 40 Oeste 0 -- -- 81
2018-01-02 17:00:00 8.2 29 Oeste 49 Oeste 0 -- -- 77
2018-01-02 16:00:00 8.9 28 Oeste 49 Oeste 0 -- -- 72
2018-01-02 15:00:00 9.4 29 Oeste 50 Oeste 0 -- -- 70
2018-01-02 14:00:00 9 23 Oeste 43 Oeste 0 -- -- 70
2018-01-02 13:00:00 9.3 25 Oeste 45 Oeste 0 -- -- 67
2018-01-02 12:00:00 7.5 28 Oeste 42 Oeste 0 -- -- 72
2018-01-02 11:00:00 6.4 17 Oeste 43 Oeste 0 -- -- 77
2018-01-02 10:00:00 4.6 28 Oeste 41 Oeste 0 -- -- 82
2018-01-02 09:00:00 2.9 15 Noroeste 45 Oeste 0 -- -- 88
2018-01-02 08:00:00 3.4 21 Oeste 36 Noroeste 0 -- -- 87
2018-01-02 07:00:00 3.5 20 Noroeste 44 Noroeste 0 -- -- 87
2018-01-02 06:00:00 4.3 21 Noroeste 42 Oeste 0 -- -- 86
2018-01-02 05:00:00 4.3 24 Oeste 40 Oeste 0 -- -- 88
2018-01-02 04:00:00 4.7 19 Oeste 41 Oeste 0 -- -- 88
2018-01-02 03:00:00 5 23 Oeste 42 Oeste 0 -- -- 87
2018-01-02 02:00:00 4.6 19 Noroeste 42 Oeste 0 -- -- 88
2018-01-02 01:00:00 4.8 25 Oeste 40 Oeste 0 -- -- 86
2018-01-02 00:00:00 5.4 22 Oeste 38 Oeste 0 -- -- 85
2018-01-01 23:00:00 5.6 22 Oeste 36 Oeste 0 -- -- 84
2018-01-01 22:00:00 5.5 18 Oeste 40 Oeste 0 -- -- 82
2018-01-01 21:00:00 5.7 23 Oeste 42 Oeste 0 -- -- 79
2018-01-01 20:00:00 5.3 24 Oeste 52 Oeste 0 -- -- 76
2018-01-01 19:00:00 5 26 Oeste 39 Oeste 0 -- -- 73
2018-01-01 18:00:00 4.6 20 Oeste 51 Oeste 0 -- -- 69
2018-01-01 17:00:00 5.5 26 Oeste 60 Oeste 0 -- -- 63
2018-01-01 16:00:00 7.2 34 Oeste 59 Oeste 0 -- -- 50
2018-01-01 15:00:00 6.9 36 Oeste 63 Oeste 0 -- -- 46
2018-01-01 14:00:00 7.1 37 Oeste 67 Oeste 0 -- -- 40
2018-01-01 13:00:00 7.5 34 Oeste 61 Oeste 0 -- -- 35
2018-01-01 12:00:00 6.6 29 Oeste 45 Oeste 0 -- -- 44
2018-01-01 11:00:00 5.3 14 Oeste 31 Sudoeste 0 -- -- 50
2018-01-01 10:00:00 2.9 16 Oeste 37 Sudoeste 0 -- -- 57
2018-01-01 09:00:00 -0.1 12 Oeste 21 Oeste 0 -- -- 77
2018-01-01 08:00:00 -1 14 Oeste 24 Oeste 0 -- -- 81
2018-01-01 07:00:00 -0.3 13 Oeste 27 Oeste 0 -- -- 78
2018-01-01 06:00:00 0.1 14 Oeste 30 Oeste 0 -- -- 76
2018-01-01 05:00:00 -0.2 14 Oeste 26 Oeste 0 -- -- 78
2018-01-01 04:00:00 -0.2 8 Noroeste 30 Noroeste 0 -- -- 78
2018-01-01 03:00:00 0.4 21 Oeste 36 Oeste 0 -- -- 75
2018-01-01 02:00:00 0.7 21 Oeste 35 Oeste 0 -- -- 75
2018-01-01 01:00:00 1.3 21 Oeste 45 Oeste 0 -- -- 72
2018-01-01 00:00:00 1.9 23 Noroeste 55 Oeste 0 -- -- 72
2017-12-31 23:00:00 3.1 30 Noroeste 54 Oeste 0 -- -- 76
2017-12-31 22:00:00 4 23 Noroeste 45 Oeste 0 -- -- 84
2017-12-31 21:00:00 4.7 19 Noroeste 43 Noroeste 0 -- -- 84
2017-12-31 20:00:00 5.6 21 Noroeste 57 Oeste 1 -- -- 87
2017-12-31 19:00:00 6.6 18 Oeste 40 Oeste 0 -- -- 84
2017-12-31 18:00:00 7 20 Oeste 43 Oeste 0 -- -- 76
2017-12-31 17:00:00 7.4 30 Oeste 53 Oeste 0 -- -- 70
2017-12-31 16:00:00 7.7 27 Oeste 54 Oeste 0 -- -- 70
2017-12-31 15:00:00 9.3 27 Oeste 55 Oeste 0 -- -- 63
2017-12-31 14:00:00 10.4 22 Oeste 41 Oeste 0 -- -- 58
2017-12-31 13:00:00 10.5 18 Oeste 34 Oeste 0 -- -- 60
2017-12-31 12:00:00 7.3 18 Oeste 37 Oeste 0 -- -- 68
2017-12-31 11:00:00 6.1 5 Oeste 15 Sudoeste 0 -- -- 67
2017-12-31 10:00:00 4.4 5 Noroeste 24 Sudoeste 0 -- -- 85
2017-12-31 09:00:00 1.7 11 Oeste 22 Oeste 0 -- -- 90
2017-12-31 08:00:00 1.8 11 Oeste 18 Oeste 0 -- -- 93
2017-12-31 07:00:00 0.7 8 Oeste 14 Oeste 0 -- -- 94
2017-12-31 06:00:00 0.4 7 Oeste 12 Oeste 0 -- -- 97
2017-12-31 05:00:00 0.5 9 Oeste 23 Sudoeste 0 -- -- 97
2017-12-31 04:00:00 2.4 10 Oeste 23 Sudoeste 0 -- -- 95
2017-12-31 03:00:00 2.2 8 Oeste 18 Oeste 0 -- -- 95
2017-12-31 02:00:00 0.2 4 Oeste 11 Oeste 0 -- -- 92
2017-12-31 01:00:00 1 10 Oeste 14 Oeste 0 -- -- 92